createdAt,value
2023-03-11T00:00:39.858Z,65.99
2023-03-11T00:03:27.771Z,64.75
2023-03-11T00:05:59.415Z,65.93
2023-03-11T00:08:28.660Z,64.13
2023-03-11T00:11:00.398Z,64.50
2023-03-11T00:13:29.866Z,64.32
2023-03-11T00:15:59.829Z,65.64
2023-03-11T00:18:31.653Z,64.81
2023-03-11T00:21:03.181Z,64.82
2023-03-11T00:23:32.849Z,65.96
2023-03-11T00:26:03.564Z,66.46
2023-03-11T00:28:34.335Z,66.94
2023-03-11T00:31:04.088Z,65.65
2023-03-11T00:33:33.235Z,67.08
2023-03-11T00:36:04.179Z,66.77
2023-03-11T00:38:33.355Z,66.01
2023-03-11T00:41:02.934Z,65.90
2023-03-11T00:43:32.059Z,65.83
2023-03-11T00:46:01.603Z,68.06
2023-03-11T00:48:30.750Z,65.57
2023-03-11T00:51:00.173Z,65.88
2023-03-11T00:53:30.715Z,66.36
2023-03-11T00:56:01.525Z,66.12
2023-03-11T00:58:30.881Z,65.73
2023-03-11T01:01:00.354Z,65.53
2023-03-11T01:03:29.452Z,66.48
2023-03-11T01:05:58.903Z,66.91
2023-03-11T01:08:28.038Z,65.48
2023-03-11T01:10:59.111Z,65.15
2023-03-11T01:13:29.586Z,65.40
2023-03-11T01:15:59.074Z,65.04
2023-03-11T01:18:28.161Z,66.85
2023-03-11T01:20:57.603Z,66.41
2023-03-11T01:23:26.684Z,65.27
2023-03-11T01:25:56.092Z,66.82
2023-03-11T01:28:26.596Z,66.83
2023-03-11T01:30:56.140Z,68.24
2023-03-11T01:33:25.254Z,68.25
2023-03-11T01:35:54.701Z,66.32
2023-03-11T01:38:23.902Z,68.31
2023-03-11T01:40:53.541Z,68.69
2023-03-11T01:43:40.976Z,69.06
2023-03-11T01:46:13.027Z,67.92
2023-03-11T01:48:42.563Z,68.46
2023-03-11T01:51:11.983Z,68.34
2023-03-11T01:53:41.028Z,67.68
2023-03-11T01:56:10.471Z,66.58
2023-03-11T01:58:41.243Z,67.46
2023-03-11T02:01:10.662Z,68.09
2023-03-11T02:03:40.689Z,68.57
2023-03-11T02:06:11.031Z,67.70
2023-03-11T02:08:40.275Z,67.66
2023-03-11T02:11:10.050Z,67.44
2023-03-11T02:13:40.572Z,67.98
2023-03-11T02:16:10.099Z,67.35
2023-03-11T02:18:39.216Z,67.58
2023-03-11T02:21:11.244Z,68.14
2023-03-11T02:23:41.851Z,67.86
2023-03-11T02:26:12.200Z,67.99
2023-03-11T02:28:42.730Z,68.41
2023-03-11T02:31:12.194Z,68.11
2023-03-11T02:33:41.353Z,67.49
2023-03-11T02:36:25.733Z,68.24
2023-03-11T02:38:54.937Z,68.34
2023-03-11T02:41:24.400Z,67.32
2023-03-11T02:43:54.862Z,68.53
2023-03-11T02:46:24.332Z,68.09
2023-03-11T02:48:53.440Z,69.26
2023-03-11T02:51:22.821Z,68.43
2023-03-11T02:53:52.730Z,69.63
2023-03-11T02:56:22.205Z,68.85
2023-03-11T02:58:51.381Z,68.38
2023-03-11T03:01:22.237Z,67.88
2023-03-11T03:03:51.390Z,68.37
2023-03-11T03:06:20.874Z,69.65
2023-03-11T03:08:50.047Z,70.12
2023-03-11T03:11:19.513Z,69.87
2023-03-11T03:13:48.538Z,71.54
2023-03-11T03:16:18.085Z,71.08
2023-03-11T03:18:48.628Z,71.09
2023-03-11T03:21:18.040Z,68.83
2023-03-11T03:23:47.117Z,69.60
2023-03-11T03:26:16.674Z,71.20
2023-03-11T03:28:45.794Z,70.65
2023-03-11T03:31:15.284Z,70.96
2023-03-11T03:33:44.354Z,70.11
2023-03-11T03:36:16.078Z,71.46
2023-03-11T03:38:45.143Z,70.63
2023-03-11T03:41:14.951Z,69.75
2023-03-11T03:43:44.064Z,71.13
2023-03-11T03:46:13.571Z,71.95
2023-03-11T03:48:42.765Z,71.32
2023-03-11T03:51:12.887Z,70.98
2023-03-11T03:53:43.392Z,72.87
2023-03-11T03:56:13.586Z,72.75
2023-03-11T03:58:42.760Z,71.78
2023-03-11T04:01:12.587Z,73.02
2023-03-11T04:03:41.771Z,72.37
2023-03-11T04:06:11.766Z,73.33
2023-03-11T04:08:41.191Z,74.26
2023-03-11T04:11:12.097Z,71.86
2023-03-11T04:13:41.540Z,74.38
2023-03-11T04:16:11.580Z,71.32
2023-03-11T04:18:40.670Z,72.97
2023-03-11T04:21:10.205Z,74.00
2023-03-11T04:23:39.361Z,73.26
2023-03-11T04:26:08.795Z,73.65
2023-03-11T04:28:39.365Z,72.58
2023-03-11T04:31:08.860Z,73.62
2023-03-11T04:33:38.039Z,73.46
2023-03-11T04:36:07.790Z,73.63
2023-03-11T04:38:37.084Z,73.97
2023-03-11T04:41:07.021Z,72.94
2023-03-11T04:43:36.165Z,74.34
2023-03-11T04:46:07.190Z,72.88
2023-03-11T04:48:36.286Z,73.20
2023-03-11T04:51:05.820Z,72.34
2023-03-11T04:53:34.968Z,72.03
2023-03-11T04:56:04.390Z,72.59
2023-03-11T04:58:33.448Z,73.83
2023-03-11T05:01:02.906Z,74.21
2023-03-11T05:03:33.444Z,71.98
2023-03-11T05:06:02.924Z,72.68
2023-03-11T05:08:31.975Z,73.89
2023-03-11T05:11:01.436Z,76.00
2023-03-11T05:13:30.690Z,75.70
2023-03-11T05:16:00.246Z,75.04
2023-03-11T05:18:31.111Z,74.56
2023-03-11T05:21:01.974Z,74.35
2023-03-11T05:23:30.930Z,75.31
2023-03-11T05:26:00.362Z,74.17
2023-03-11T05:28:29.451Z,74.39
2023-03-11T05:30:58.905Z,73.87
2023-03-11T05:33:32.385Z,74.25
2023-03-11T05:36:06.508Z,74.73
2023-03-11T05:38:35.705Z,75.37
2023-03-11T05:41:06.513Z,74.02
2023-03-11T05:43:35.637Z,74.14
2023-03-11T05:46:05.313Z,74.51
2023-03-11T05:48:34.486Z,74.37
2023-03-11T05:51:09.256Z,75.15
2023-03-11T05:53:38.470Z,75.07
2023-03-11T05:56:08.359Z,75.73
2023-03-11T05:58:37.472Z,74.96
2023-03-11T06:01:09.191Z,75.54
2023-03-11T06:03:38.425Z,75.43
2023-03-11T06:06:09.856Z,76.08
2023-03-11T06:08:39.126Z,75.13
2023-03-11T06:11:09.111Z,76.58
2023-03-11T06:13:38.593Z,74.30
2023-03-11T06:16:08.463Z,75.02
2023-03-11T06:18:37.604Z,75.33
2023-03-11T06:21:08.673Z,75.33
2023-03-11T06:23:39.194Z,74.31
2023-03-11T06:26:08.662Z,75.14
2023-03-11T06:28:37.706Z,75.81
2023-03-11T06:31:10.824Z,74.75
2023-03-11T06:33:39.949Z,75.45
2023-03-11T06:36:09.891Z,74.91
2023-03-11T06:38:40.417Z,75.59
2023-03-11T06:41:10.036Z,75.32
2023-03-11T06:43:39.182Z,74.81
2023-03-11T06:46:12.104Z,74.51
2023-03-11T06:48:41.207Z,75.12
2023-03-11T06:51:11.194Z,75.16
2023-03-11T06:53:41.732Z,75.08
2023-03-11T06:56:12.071Z,74.59
2023-03-11T06:58:41.567Z,75.18
2023-03-11T07:01:12.118Z,75.25
2023-03-11T07:03:41.330Z,75.06
2023-03-11T07:06:12.954Z,74.29
2023-03-11T07:08:43.492Z,73.19
2023-03-11T07:11:14.677Z,72.82
2023-03-11T07:13:43.878Z,74.44
2023-03-11T07:16:15.658Z,74.37
2023-03-11T07:18:45.156Z,74.19
2023-03-11T07:21:15.227Z,74.00
2023-03-11T07:23:45.872Z,73.05
2023-03-11T07:26:15.746Z,72.96
2023-03-11T07:28:45.850Z,72.95
2023-03-11T07:31:16.730Z,73.12
2023-03-11T07:33:50.709Z,72.67
2023-03-11T07:36:20.765Z,73.32
2023-03-11T07:38:51.486Z,72.85
2023-03-11T07:41:20.987Z,72.40
2023-03-11T07:43:50.010Z,72.88
2023-03-11T07:46:19.914Z,72.21
2023-03-11T07:48:49.336Z,71.65
2023-03-11T07:51:19.476Z,72.83
2023-03-11T07:53:48.700Z,72.44
2023-03-11T07:56:19.774Z,72.44
2023-03-11T07:58:48.958Z,72.28
2023-03-11T08:01:19.178Z,72.03
2023-03-11T08:03:49.782Z,72.15
2023-03-11T08:06:19.832Z,72.02
2023-03-11T08:08:48.985Z,71.90
2023-03-11T08:11:20.826Z,71.11
2023-03-11T08:13:49.919Z,71.47
2023-03-11T08:16:19.884Z,70.73
2023-03-11T08:18:49.140Z,71.50
2023-03-11T08:21:19.328Z,71.58
2023-03-11T08:23:48.408Z,71.73
2023-03-11T08:26:18.647Z,70.76
2023-03-11T08:28:49.287Z,70.80
2023-03-11T08:31:19.335Z,70.69
2023-03-11T08:33:50.048Z,70.93
2023-03-11T08:36:20.130Z,70.61
2023-03-11T08:38:49.266Z,70.07
2023-03-11T08:41:18.766Z,70.00
2023-03-11T08:43:49.358Z,70.45
2023-03-11T08:46:21.542Z,70.71
2023-03-11T08:48:50.739Z,70.08
2023-03-11T08:51:20.255Z,70.55
2023-03-11T08:53:49.341Z,70.37
2023-03-11T08:56:18.834Z,70.52
2023-03-11T08:58:49.382Z,69.52
2023-03-11T09:01:20.302Z,69.32
2023-03-11T09:03:49.441Z,69.82
2023-03-11T09:06:19.039Z,69.76
2023-03-11T09:08:48.635Z,68.97
2023-03-11T09:11:18.783Z,69.12
2023-03-11T09:13:49.809Z,69.86
2023-03-11T09:16:20.010Z,69.90
2023-03-11T09:18:49.120Z,69.50
2023-03-11T09:21:18.918Z,69.05
2023-03-11T09:23:48.294Z,68.31
2023-03-11T09:26:17.656Z,68.45
2023-03-11T09:28:49.379Z,68.30
2023-03-11T09:31:20.437Z,67.93
2023-03-11T09:33:50.176Z,68.10
2023-03-11T09:36:20.619Z,68.11
2023-03-11T09:38:49.771Z,67.92
2023-03-11T09:41:28.375Z,67.82
2023-03-11T09:44:01.270Z,68.35
2023-03-11T09:46:46.731Z,68.18
2023-03-11T09:49:17.466Z,68.12
2023-03-11T09:51:48.189Z,68.15
2023-03-11T09:54:17.349Z,67.14
2023-03-11T09:56:46.727Z,67.01
2023-03-11T09:59:16.855Z,67.10
2023-03-11T10:01:48.355Z,66.90
2023-03-11T10:04:18.936Z,67.29
2023-03-11T10:06:48.686Z,66.75
2023-03-11T10:09:26.840Z,66.38
2023-03-11T10:11:59.062Z,66.58
2023-03-11T10:14:31.802Z,66.81
2023-03-11T10:17:04.892Z,67.24
2023-03-11T10:19:36.300Z,66.21
2023-03-11T10:22:08.446Z,66.57
2023-03-11T10:24:42.415Z,66.29
2023-03-11T10:27:13.043Z,66.19
2023-03-11T10:29:44.228Z,66.45
2023-03-11T10:32:16.087Z,66.32
2023-03-11T10:34:45.507Z,66.37
2023-03-11T10:37:15.885Z,66.01
2023-03-11T10:39:44.996Z,65.86
2023-03-11T10:42:15.321Z,65.91
2023-03-11T10:44:44.455Z,66.21
2023-03-11T10:47:16.527Z,66.05
2023-03-11T10:49:45.775Z,65.69
2023-03-11T10:52:15.319Z,65.54
2023-03-11T10:54:46.460Z,65.57
2023-03-11T10:57:23.654Z,65.32
2023-03-11T10:59:53.452Z,64.72
2023-03-11T11:02:26.941Z,64.81
2023-03-11T11:05:07.361Z,64.59
2023-03-11T11:07:37.178Z,64.19
2023-03-11T11:10:16.698Z,64.80
2023-03-11T11:12:56.393Z,64.51
2023-03-11T11:15:27.621Z,63.93
2023-03-11T11:17:59.448Z,63.95
2023-03-11T11:20:28.822Z,64.05
2023-03-11T11:22:58.850Z,63.62
2023-03-11T11:25:29.606Z,64.12
2023-03-11T11:27:59.743Z,63.76
2023-03-11T11:30:29.022Z,63.03
2023-03-11T11:33:04.350Z,63.79
2023-03-11T11:35:33.519Z,63.82
2023-03-11T11:38:04.390Z,63.61
2023-03-11T11:40:33.642Z,63.84
2023-03-11T11:43:04.292Z,63.01
2023-03-11T11:45:37.295Z,63.75
2023-03-11T11:48:13.801Z,63.51
2023-03-11T11:50:43.593Z,63.40
2023-03-11T11:53:16.252Z,63.04
2023-03-11T11:55:45.898Z,62.60
2023-03-11T11:58:15.334Z,62.94
2023-03-11T12:00:47.322Z,62.77
2023-03-11T12:03:29.035Z,62.55
2023-03-11T12:05:59.146Z,62.39
2023-03-11T12:08:29.773Z,62.48
2023-03-11T12:10:59.191Z,62.29
2023-03-11T12:13:37.579Z,62.31
2023-03-11T12:16:07.385Z,61.57
2023-03-11T12:18:39.192Z,60.89
2023-03-11T12:21:11.560Z,61.57
2023-03-11T12:23:43.638Z,60.50
2023-03-11T12:26:15.195Z,60.75
2023-03-11T12:28:47.855Z,60.69
2023-03-11T12:31:17.082Z,60.45
2023-03-11T12:33:47.984Z,60.79
2023-03-11T12:36:27.040Z,59.98
2023-03-11T12:38:56.606Z,60.67
2023-03-11T12:41:30.842Z,60.35
2023-03-11T12:44:04.531Z,60.00
2023-03-11T12:46:53.973Z,60.71
2023-03-11T12:49:26.114Z,60.60
2023-03-11T12:52:17.849Z,60.77
2023-03-11T12:54:47.462Z,60.56
2023-03-11T12:57:40.580Z,60.76
2023-03-11T13:00:19.668Z,60.65
2023-03-11T13:03:10.764Z,61.04
2023-03-11T13:05:47.565Z,60.68
2023-03-11T13:08:17.140Z,61.22
2023-03-11T13:10:47.360Z,61.19
2023-03-11T13:13:40.075Z,61.20
2023-03-11T13:16:42.262Z,61.54
2023-03-11T13:19:34.782Z,61.24
2023-03-11T13:22:06.823Z,61.15
2023-03-11T13:24:42.734Z,61.07
2023-03-11T13:27:12.631Z,61.37
2023-03-11T13:29:55.550Z,61.14
2023-03-11T13:32:37.754Z,61.00
2023-03-11T13:35:12.789Z,60.70
2023-03-11T13:37:46.160Z,60.94
2023-03-11T13:40:18.321Z,60.64
2023-03-11T13:42:48.236Z,60.29
2023-03-11T13:45:24.024Z,60.35
2023-03-11T13:47:53.497Z,60.16
2023-03-11T13:50:24.505Z,60.28
2023-03-11T13:52:55.424Z,60.10
2023-03-11T13:55:25.232Z,60.03
2023-03-11T13:57:55.076Z,59.92
2023-03-11T14:00:25.470Z,59.85
2023-03-11T14:02:55.641Z,59.18
2023-03-11T14:05:25.373Z,59.74
2023-03-11T14:07:56.209Z,59.33
2023-03-11T14:10:26.653Z,59.37
2023-03-11T14:13:08.851Z,59.40
2023-03-11T14:15:44.643Z,59.57
2023-03-11T14:18:25.765Z,58.89
2023-03-11T14:20:54.965Z,58.94
2023-03-11T14:23:26.591Z,59.48
2023-03-11T14:25:59.530Z,57.91
2023-03-11T14:28:28.988Z,58.80
2023-03-11T14:30:58.251Z,58.47
2023-03-11T14:33:27.786Z,58.33
2023-03-11T14:35:57.326Z,57.99
2023-03-11T14:38:28.996Z,57.81
2023-03-11T14:40:58.743Z,57.97
2023-03-11T14:43:28.491Z,57.22
2023-03-11T14:45:57.766Z,55.67
2023-03-11T14:48:27.649Z,55.97
2023-03-11T14:50:56.787Z,56.63
2023-03-11T14:53:26.449Z,56.25
2023-03-11T14:55:58.235Z,55.82
2023-03-11T14:58:30.451Z,56.46
2023-03-11T15:01:00.882Z,55.81
2023-03-11T15:03:31.860Z,53.26
2023-03-11T15:06:03.214Z,55.68
2023-03-11T15:08:33.136Z,55.72
2023-03-11T15:11:04.373Z,54.88
2023-03-11T15:13:34.122Z,54.64
2023-03-11T15:16:03.495Z,53.95
2023-03-11T15:18:33.526Z,54.88
2023-03-11T15:21:06.737Z,54.10
2023-03-11T15:23:36.871Z,53.91
2023-03-11T15:26:07.493Z,54.06
2023-03-11T15:28:38.080Z,53.81
2023-03-11T15:31:17.043Z,52.85
2023-03-11T15:33:46.737Z,53.99
2023-03-11T15:36:31.902Z,53.81
2023-03-11T15:39:15.216Z,53.93
2023-03-11T15:41:46.461Z,53.91
2023-03-11T15:44:26.693Z,54.10
2023-03-11T15:46:55.842Z,53.87
2023-03-11T15:49:25.296Z,54.11
2023-03-11T15:51:54.393Z,54.07
2023-03-11T15:54:23.829Z,53.77
2023-03-11T15:56:55.244Z,53.99
2023-03-11T15:59:24.663Z,53.94
2023-03-11T16:01:53.773Z,54.02
2023-03-11T16:04:23.364Z,54.03
2023-03-11T16:07:06.860Z,54.06
2023-03-11T16:09:37.601Z,54.02
2023-03-11T16:12:12.478Z,53.98
2023-03-11T16:14:41.876Z,54.46
2023-03-11T16:17:14.394Z,54.09
2023-03-11T16:19:44.010Z,54.28
2023-03-11T16:22:15.799Z,54.50
2023-03-11T16:24:45.251Z,54.67
2023-03-11T16:27:17.950Z,54.71
2023-03-11T16:29:47.638Z,54.74
2023-03-11T16:32:17.009Z,54.17
2023-03-11T16:34:46.519Z,54.85
2023-03-11T16:37:17.528Z,54.74
2023-03-11T16:39:46.978Z,54.61
2023-03-11T16:42:17.719Z,54.70
2023-03-11T16:44:47.218Z,54.86
2023-03-11T16:47:16.279Z,54.88
2023-03-11T16:49:45.745Z,54.60
2023-03-11T16:52:14.893Z,54.83
2023-03-11T16:54:44.337Z,54.50
2023-03-11T16:57:13.408Z,54.75
2023-03-11T16:59:44.277Z,54.84
2023-03-11T17:02:13.413Z,54.83
2023-03-11T17:04:42.859Z,55.03
2023-03-11T17:07:12.107Z,55.04
2023-03-11T17:09:41.542Z,55.08
2023-03-11T17:12:13.532Z,55.28
2023-03-11T17:14:44.503Z,55.42
2023-03-11T17:17:13.731Z,55.29
2023-03-11T17:19:43.170Z,55.33
2023-03-11T17:22:12.289Z,55.20
2023-03-11T17:24:41.743Z,55.36
2023-03-11T17:27:10.986Z,55.28
2023-03-11T17:29:40.438Z,55.21
2023-03-11T17:32:16.904Z,55.41
2023-03-11T17:34:46.546Z,55.83
2023-03-11T17:37:15.654Z,55.76
2023-03-11T17:39:45.104Z,56.01
2023-03-11T17:42:14.455Z,55.62
2023-03-11T17:44:51.348Z,55.69
2023-03-11T17:47:26.163Z,56.01
2023-03-11T17:49:55.738Z,55.98
2023-03-11T17:52:24.837Z,55.74
2023-03-11T17:54:56.002Z,55.70
2023-03-11T17:57:25.157Z,55.94
2023-03-11T17:59:54.792Z,55.76
2023-03-11T18:02:25.395Z,55.86
2023-03-11T18:04:54.928Z,55.63
2023-03-11T18:07:26.033Z,55.78
2023-03-11T18:09:55.501Z,55.93
2023-03-11T18:12:24.498Z,55.97
2023-03-11T18:14:54.051Z,55.71
2023-03-11T18:17:23.703Z,55.78
2023-03-11T18:19:54.512Z,55.72
2023-03-11T18:22:23.624Z,55.84
2023-03-11T18:24:53.051Z,55.79
2023-03-11T18:27:22.128Z,55.74
2023-03-11T18:29:51.616Z,55.71
2023-03-11T18:32:21.408Z,55.93
2023-03-11T18:34:51.068Z,55.92
2023-03-11T18:37:21.631Z,56.35
2023-03-11T18:39:52.070Z,56.13
2023-03-11T18:42:23.209Z,56.29
2023-03-11T18:44:52.722Z,56.36
2023-03-11T18:47:21.881Z,56.31
2023-03-11T18:49:51.508Z,56.75
2023-03-11T18:52:22.684Z,56.40
2023-03-11T18:54:52.194Z,56.44
2023-03-11T18:57:21.223Z,56.42
2023-03-11T18:59:52.158Z,56.90
2023-03-11T19:02:21.321Z,57.00
2023-03-11T19:04:50.918Z,57.08
2023-03-11T19:07:22.748Z,56.96
2023-03-11T19:09:52.335Z,56.70
2023-03-11T19:12:21.427Z,57.12
2023-03-11T19:14:50.838Z,57.34
2023-03-11T19:17:19.868Z,57.35
2023-03-11T19:19:49.288Z,57.72
2023-03-11T19:22:18.393Z,57.89
2023-03-11T19:24:49.270Z,57.45
2023-03-11T19:27:18.328Z,57.59
2023-03-11T19:29:47.781Z,58.11
2023-03-11T19:32:16.910Z,58.14
2023-03-11T19:34:46.595Z,58.28
2023-03-11T19:37:17.240Z,58.45
2023-03-11T19:39:46.657Z,58.59
2023-03-11T19:42:17.264Z,58.53
2023-03-11T19:44:46.881Z,58.79
2023-03-11T19:47:16.223Z,59.08
2023-03-11T19:49:45.706Z,58.88
2023-03-11T19:52:16.939Z,58.90
2023-03-11T19:54:46.442Z,59.50
2023-03-11T19:57:17.035Z,58.98
2023-03-11T19:59:46.611Z,59.10
2023-03-11T20:02:16.647Z,59.23
2023-03-11T20:04:46.284Z,59.54
2023-03-11T20:07:15.456Z,59.40
2023-03-11T20:09:51.017Z,59.18
2023-03-11T20:12:21.586Z,59.22
2023-03-11T20:14:51.046Z,59.38
2023-03-11T20:17:20.217Z,59.56
2023-03-11T20:19:49.724Z,59.10
2023-03-11T20:22:20.134Z,59.32
2023-03-11T20:24:49.567Z,59.30
2023-03-11T20:27:18.729Z,59.42
2023-03-11T20:29:49.649Z,59.44
2023-03-11T20:32:18.936Z,59.50
2023-03-11T20:34:48.374Z,59.35
2023-03-11T20:37:17.567Z,59.20
2023-03-11T20:39:47.233Z,59.75
2023-03-11T20:42:16.365Z,59.90
2023-03-11T20:44:51.177Z,59.30
2023-03-11T20:47:24.537Z,59.33
2023-03-11T20:49:54.872Z,59.59
2023-03-11T20:52:23.907Z,59.50
2023-03-11T20:54:56.116Z,59.60
2023-03-11T20:57:25.236Z,59.74
2023-03-11T20:59:54.700Z,59.23
2023-03-11T21:02:25.597Z,59.48
2023-03-11T21:04:55.292Z,59.46
2023-03-11T21:07:24.506Z,59.50
2023-03-11T21:09:55.158Z,58.77
2023-03-11T21:12:26.209Z,58.81
2023-03-11T21:14:55.774Z,58.59
2023-03-11T21:17:26.548Z,58.81
2023-03-11T21:19:56.213Z,58.66
2023-03-11T21:22:25.311Z,58.47
2023-03-11T21:24:54.910Z,58.78
2023-03-11T21:27:26.654Z,58.87
2023-03-11T21:29:56.548Z,58.77
2023-03-11T21:32:28.079Z,59.03
2023-03-11T21:34:57.839Z,58.59
2023-03-11T21:37:27.260Z,58.94
2023-03-11T21:39:56.769Z,58.90
2023-03-11T21:42:25.924Z,58.75
2023-03-11T21:44:55.315Z,58.79
2023-03-11T21:47:24.417Z,59.26
2023-03-11T21:49:55.291Z,59.21
2023-03-11T21:52:24.353Z,59.24
2023-03-11T21:54:53.780Z,59.10
2023-03-11T21:57:22.964Z,59.47
2023-03-11T21:59:52.387Z,59.77
2023-03-11T22:02:21.507Z,60.19
2023-03-11T22:04:51.074Z,60.80
2023-03-11T22:07:22.842Z,61.26
2023-03-11T22:09:53.508Z,61.04
2023-03-11T22:12:22.751Z,60.82
2023-03-11T22:14:52.109Z,61.14
2023-03-11T22:17:21.258Z,60.52
2023-03-11T22:19:50.837Z,60.29
2023-03-11T22:22:21.454Z,60.04
2023-03-11T22:24:50.850Z,59.68
2023-03-11T22:27:19.926Z,59.75
2023-03-11T22:29:49.303Z,59.52
2023-03-11T22:32:18.398Z,59.64
2023-03-11T22:34:47.759Z,59.38
2023-03-11T22:37:16.843Z,59.44
2023-03-11T22:39:47.737Z,59.21
2023-03-11T22:42:16.815Z,59.31
2023-03-11T22:44:46.179Z,59.51
2023-03-11T22:47:15.188Z,59.19
2023-03-11T22:49:44.633Z,59.18
2023-03-11T22:52:13.731Z,59.13
2023-03-11T22:54:43.084Z,59.73
2023-03-11T22:57:13.595Z,59.58
2023-03-11T22:59:42.912Z,59.54
2023-03-11T23:02:12.055Z,59.26
2023-03-11T23:04:41.422Z,59.28
2023-03-11T23:07:10.498Z,59.54
2023-03-11T23:09:39.896Z,59.94
2023-03-11T23:12:09.267Z,60.19
2023-03-11T23:14:44.862Z,60.11
2023-03-11T23:17:14.248Z,60.84
2023-03-11T23:19:43.652Z,61.27
2023-03-11T23:22:12.720Z,62.08
2023-03-11T23:24:42.047Z,61.31
2023-03-11T23:27:11.116Z,61.50
2023-03-11T23:29:43.946Z,61.64
2023-03-11T23:32:12.998Z,62.66
2023-03-11T23:34:42.363Z,62.88
2023-03-11T23:37:11.495Z,62.84
2023-03-11T23:39:40.895Z,63.06
2023-03-11T23:42:24.525Z,63.22
2023-03-11T23:44:56.068Z,63.08
2023-03-11T23:47:25.148Z,62.95
2023-03-11T23:49:54.531Z,63.07
2023-03-11T23:52:23.565Z,63.04
2023-03-11T23:54:52.941Z,63.82
2023-03-11T23:57:22.009Z,63.84
2023-03-11T23:59:51.379Z,64.36
